Time;durP1;ratioP1;P1;durP2;ratioP2;P2;SDS_P1;SDS_P2;PMS_P1;PMS_P2;Temp;Humidity;BMP_temperature;BMP_pressure;BME280_temperature;BME280_humidity;BME280_pressure;Samples;Min_cycle;Max_cycle;Signal;HPM_P1;HPM_P2
2024/04/04 00:00:40;;;;;;;1.77;0.93;;;;;;;;;;6251963;28;20029;-80
2024/04/04 00:03:40;;;;;;;1.95;0.90;;;;;;;;;;6248487;28;20036;-80
2024/04/04 00:06:41;;;;;;;2.53;1.07;;;;;;;;;;6245812;28;20413;-81
2024/04/04 00:09:41;;;;;;;1.50;0.80;;;;;;;;;;6254469;28;20233;-80
2024/04/04 00:12:42;;;;;;;0.83;0.50;;;;;;;;;;6254145;28;20740;-80
2024/04/04 00:15:42;;;;;;;0.73;0.50;;;;;;;;;;6256933;28;20406;-80
2024/04/04 00:18:43;;;;;;;1.58;0.70;;;;;;;;;;6254416;28;20029;-80
2024/04/04 00:21:43;;;;;;;1.00;0.50;;;;;;;;;;6245941;28;20034;-80
2024/04/04 00:24:43;;;;;;;0.87;0.50;;;;;;;;;;6250751;28;20021;-80
2024/04/04 00:27:44;;;;;;;1.00;0.50;;;;;;;;;;6250027;28;20025;-80
2024/04/04 00:30:44;;;;;;;1.50;0.40;;;;;;;;;;6249884;28;20083;-80
2024/04/04 00:33:45;;;;;;;0.40;0.30;;;;;;;;;;6251828;28;20025;-80
2024/04/04 00:36:46;;;;;;;1.38;0.25;;;;;;;;;;6249895;28;20050;-80
2024/04/04 00:39:46;;;;;;;0.45;0.30;;;;;;;;;;6249671;28;20041;-80
2024/04/04 00:42:49;;;;;;;0.50;0.40;;;;;;;;;;6253341;28;20382;-80
2024/04/04 00:45:49;;;;;;;0.40;0.32;;;;;;;;;;6252100;28;20039;-80
2024/04/04 00:48:50;;;;;;;0.77;0.43;;;;;;;;;;6248357;28;20029;-80
2024/04/04 00:51:51;;;;;;;0.80;0.38;;;;;;;;;;6248792;28;20544;-80
2024/04/04 00:54:52;;;;;;;0.68;0.40;;;;;;;;;;6240324;28;20402;-80
2024/04/04 00:57:53;;;;;;;0.50;0.40;;;;;;;;;;6259846;28;20042;-81
2024/04/04 01:00:53;;;;;;;0.77;0.30;;;;;;;;;;6241665;28;20052;-80
2024/04/04 01:03:53;;;;;;;0.27;0.23;;;;;;;;;;6245874;28;20063;-80
2024/04/04 01:06:53;;;;;;;0.47;0.33;;;;;;;;;;6249925;28;20369;-80
2024/04/04 01:09:54;;;;;;;0.23;0.20;;;;;;;;;;6252963;28;20025;-80
2024/04/04 01:12:54;;;;;;;0.20;0.20;;;;;;;;;;6248003;28;20112;-80
2024/04/04 01:15:54;;;;;;;0.20;0.10;;;;;;;;;;6250349;28;20377;-80
2024/04/04 01:18:54;;;;;;;1.03;0.20;;;;;;;;;;6247108;28;20452;-77
2024/04/04 01:21:55;;;;;;;0.47;0.20;;;;;;;;;;6251494;28;20434;-78
2024/04/04 01:24:55;;;;;;;0.20;0.20;;;;;;;;;;6248670;28;20026;-78
2024/04/04 01:27:55;;;;;;;0.10;0.10;;;;;;;;;;6245868;28;20028;-78
2024/04/04 01:30:57;;;;;;;0.20;0.20;;;;;;;;;;6253120;28;20080;-77
2024/04/04 01:33:57;;;;;;;0.20;0.20;;;;;;;;;;6249761;28;20474;-77
2024/04/04 01:36:58;;;;;;;0.20;0.20;;;;;;;;;;6247176;28;20092;-77
2024/04/04 01:39:58;;;;;;;0.20;0.20;;;;;;;;;;6249116;28;20098;-78
2024/04/04 01:42:58;;;;;;;0.53;0.10;;;;;;;;;;6248597;28;20163;-77
2024/04/04 01:45:58;;;;;;;0.20;0.20;;;;;;;;;;6241050;28;20156;-78
2024/04/04 01:48:59;;;;;;;0.20;0.20;;;;;;;;;;6251073;28;20040;-78
2024/04/04 01:51:59;;;;;;;0.10;0.10;;;;;;;;;;6245397;28;20033;-78
2024/04/04 01:54:59;;;;;;;0.10;0.10;;;;;;;;;;6248633;28;20029;-78
2024/04/04 01:57:59;;;;;;;0.27;0.10;;;;;;;;;;6250732;28;20014;-78
2024/04/04 02:01:00;;;;;;;0.10;0.10;;;;;;;;;;6246105;28;20021;-77
2024/04/04 02:04:00;;;;;;;0.60;0.20;;;;;;;;;;6247070;28;20032;-78
2024/04/04 02:07:00;;;;;;;0.20;0.20;;;;;;;;;;6244273;28;20033;-77
2024/04/04 02:10:01;;;;;;;0.20;0.17;;;;;;;;;;6247777;28;20018;-78
2024/04/04 02:13:02;;;;;;;0.13;0.13;;;;;;;;;;6249829;28;20561;-78
2024/04/04 02:16:02;;;;;;;;;;;;;;;;;;6250017;28;20268;-77
2024/04/04 02:19:02;;;;;;;0.10;0.10;;;;;;;;;;6245331;28;20019;-78
2024/04/04 02:22:03;;;;;;;0.20;0.20;;;;;;;;;;6247885;28;20098;-78
2024/04/04 02:25:04;;;;;;;0.27;0.20;;;;;;;;;;6244186;28;20540;-77
2024/04/04 02:28:05;;;;;;;0.20;0.20;;;;;;;;;;6249456;28;20108;-78
2024/04/04 02:31:05;;;;;;;0.35;0.10;;;;;;;;;;6256787;28;20436;-78
2024/04/04 02:34:06;;;;;;;0.40;0.20;;;;;;;;;;6251711;28;20033;-77
2024/04/04 02:37:06;;;;;;;0.20;0.20;;;;;;;;;;6247917;28;20406;-77
2024/04/04 02:40:08;;;;;;;0.13;0.13;;;;;;;;;;6241102;28;20478;-78
2024/04/04 02:43:08;;;;;;;0.00;0.00;;;;;;;;;;6243658;28;20112;-77
2024/04/04 02:46:08;;;;;;;0.43;0.20;;;;;;;;;;6242361;28;20075;-78
2024/04/04 02:49:09;;;;;;;0.30;0.20;;;;;;;;;;6224087;28;20032;-80
2024/04/04 02:52:09;;;;;;;0.10;0.10;;;;;;;;;;6240413;28;20112;-80
2024/04/04 02:55:09;;;;;;;0.20;0.20;;;;;;;;;;6247747;28;20033;-79
2024/04/04 02:58:10;;;;;;;1.33;0.10;;;;;;;;;;6249241;28;20017;-80
2024/04/04 03:01:10;;;;;;;0.15;0.10;;;;;;;;;;6245630;28;20038;-79
2024/04/04 03:04:10;;;;;;;0.20;0.20;;;;;;;;;;6248426;28;20033;-80
2024/04/04 03:07:11;;;;;;;0.10;0.10;;;;;;;;;;6247052;28;20029;-80
2024/04/04 03:10:11;;;;;;;0.22;0.20;;;;;;;;;;6244012;28;20112;-79
2024/04/04 03:13:12;;;;;;;0.40;0.20;;;;;;;;;;6252026;28;20064;-78
2024/04/04 03:16:13;;;;;;;0.13;0.13;;;;;;;;;;6249330;28;20543;-78
2024/04/04 03:19:13;;;;;;;0.20;0.20;;;;;;;;;;6244260;28;20276;-79
2024/04/04 03:22:14;;;;;;;0.20;0.20;;;;;;;;;;6255665;28;20359;-79
2024/04/04 03:25:14;;;;;;;0.20;0.20;;;;;;;;;;6254660;28;20026;-78
2024/04/04 03:28:14;;;;;;;0.27;0.20;;;;;;;;;;6257264;28;20034;-79
2024/04/04 03:31:15;;;;;;;0.20;0.20;;;;;;;;;;6238821;28;20042;-78
2024/04/04 03:34:15;;;;;;;0.27;0.20;;;;;;;;;;6249131;28;20760;-78
2024/04/04 03:37:16;;;;;;;0.70;0.40;;;;;;;;;;6252127;28;20483;-79
2024/04/04 03:40:16;;;;;;;0.20;0.20;;;;;;;;;;6255724;28;20024;-81
2024/04/04 03:43:17;;;;;;;1.13;0.22;;;;;;;;;;6259715;28;20377;-82
2024/04/04 03:46:17;;;;;;;0.27;0.20;;;;;;;;;;6254069;28;20041;-81
2024/04/04 03:49:17;;;;;;;0.45;0.32;;;;;;;;;;6246295;28;20033;-81
2024/04/04 03:52:18;;;;;;;0.20;0.20;;;;;;;;;;6261676;28;20033;-81
2024/04/04 03:55:18;;;;;;;0.40;0.30;;;;;;;;;;6263363;28;20025;-81
2024/04/04 03:58:18;;;;;;;0.30;0.30;;;;;;;;;;6257051;28;20036;-81
2024/04/04 04:01:19;;;;;;;0.10;0.10;;;;;;;;;;6244151;28;20029;-81
2024/04/04 04:04:19;;;;;;;0.10;0.10;;;;;;;;;;6250595;28;20034;-80
2024/04/04 04:07:19;;;;;;;0.50;0.20;;;;;;;;;;6259467;28;20473;-80
2024/04/04 04:10:19;;;;;;;0.30;0.30;;;;;;;;;;6256605;28;20489;-81
2024/04/04 04:13:20;;;;;;;0.67;0.30;;;;;;;;;;6266590;28;20107;-81
2024/04/04 04:16:20;;;;;;;1.08;0.52;;;;;;;;;;6267378;28;20112;-81
2024/04/04 04:19:21;;;;;;;1.20;0.50;;;;;;;;;;6255233;28;20060;-81
2024/04/04 04:22:21;;;;;;;0.70;0.53;;;;;;;;;;6260755;28;20056;-79
2024/04/04 04:25:21;;;;;;;0.40;0.40;;;;;;;;;;6256869;28;20457;-79
2024/04/04 04:28:22;;;;;;;0.40;0.30;;;;;;;;;;6265406;28;20033;-81
2024/04/04 04:31:24;;;;;;;0.47;0.40;;;;;;;;;;6259009;28;20025;-79
2024/04/04 04:34:24;;;;;;;0.43;0.30;;;;;;;;;;6261139;28;20029;-79
2024/04/04 04:37:25;;;;;;;0.20;0.20;;;;;;;;;;6252902;28;20410;-80
2024/04/04 04:40:25;;;;;;;1.10;0.30;;;;;;;;;;6262570;28;20104;-80
2024/04/04 04:43:25;;;;;;;0.20;0.20;;;;;;;;;;6258345;28;20025;-80
2024/04/04 04:46:26;;;;;;;0.10;0.10;;;;;;;;;;6262269;28;20025;-80
2024/04/04 04:49:26;;;;;;;0.20;0.20;;;;;;;;;;6255764;28;20113;-78
2024/04/04 04:52:26;;;;;;;0.40;0.20;;;;;;;;;;6255016;28;20390;-78
2024/04/04 04:55:26;;;;;;;0.40;0.10;;;;;;;;;;6255917;28;20463;-77
2024/04/04 04:58:27;;;;;;;0.90;0.70;;;;;;;;;;6244688;28;20485;-79
2024/04/04 05:01:27;;;;;;;1.77;1.63;;;;;;;;;;6246568;28;20052;-79
2024/04/04 05:04:27;;;;;;;1.67;1.17;;;;;;;;;;6255386;28;20045;-77
2024/04/04 05:07:28;;;;;;;1.40;0.70;;;;;;;;;;6249005;28;20477;-77
2024/04/04 05:10:29;;;;;;;0.73;0.60;;;;;;;;;;6254468;28;20302;-78
2024/04/04 05:13:30;;;;;;;0.20;0.20;;;;;;;;;;6253442;28;20390;-79
2024/04/04 05:16:30;;;;;;;0.40;0.30;;;;;;;;;;6262091;28;20056;-79
2024/04/04 05:19:30;;;;;;;0.30;0.30;;;;;;;;;;6269660;28;20052;-78
2024/04/04 05:22:31;;;;;;;0.30;0.30;;;;;;;;;;6260108;28;20552;-79
2024/04/04 05:25:31;;;;;;;0.20;0.20;;;;;;;;;;6258896;28;20029;-79
2024/04/04 05:28:34;;;;;;;2.43;0.43;;;;;;;;;;6258374;28;20508;-81
2024/04/04 05:31:34;;;;;;;0.30;0.20;;;;;;;;;;6259097;28;20275;-79
2024/04/04 05:34:34;;;;;;;0.23;0.20;;;;;;;;;;6259859;28;20400;-79
2024/04/04 05:37:37;;;;;;;0.47;0.20;;;;;;;;;;6260683;28;20055;-79
2024/04/04 05:40:37;;;;;;;0.22;0.10;;;;;;;;;;6266996;28;20466;-79
2024/04/04 05:43:37;;;;;;;0.20;0.20;;;;;;;;;;6256935;28;20026;-79
2024/04/04 05:46:37;;;;;;;0.30;0.20;;;;;;;;;;6265704;28;20040;-79
2024/04/04 05:49:38;;;;;;;0.30;0.30;;;;;;;;;;6263334;28;20450;-79
2024/04/04 05:52:38;;;;;;;0.20;0.20;;;;;;;;;;6257801;28;20029;-79
2024/04/04 05:55:38;;;;;;;0.27;0.20;;;;;;;;;;6264320;28;20033;-79
2024/04/04 05:58:38;;;;;;;0.30;0.20;;;;;;;;;;6256216;28;20013;-79
2024/04/04 06:01:39;;;;;;;0.20;0.17;;;;;;;;;;6250785;28;20029;-79
2024/04/04 06:04:39;;;;;;;0.20;0.20;;;;;;;;;;6249915;28;20033;-79
2024/04/04 06:07:39;;;;;;;0.60;0.40;;;;;;;;;;6251165;28;20025;-80
2024/04/04 06:10:39;;;;;;;0.30;0.30;;;;;;;;;;6253643;28;20013;-79
2024/04/04 06:13:40;;;;;;;0.40;0.27;;;;;;;;;;6260936;28;20026;-79
2024/04/04 06:16:40;;;;;;;0.63;0.30;;;;;;;;;;6256042;28;20055;-79
2024/04/04 06:19:40;;;;;;;0.20;0.20;;;;;;;;;;6247469;28;20385;-79
2024/04/04 06:22:40;;;;;;;0.40;0.20;;;;;;;;;;6246948;28;20497;-79
2024/04/04 06:25:41;;;;;;;0.20;0.20;;;;;;;;;;6250249;28;20474;-79
2024/04/04 06:28:41;;;;;;;0.40;0.20;;;;;;;;;;6249615;28;20470;-79
2024/04/04 06:31:41;;;;;;;0.40;0.20;;;;;;;;;;6249083;28;20374;-80
2024/04/04 06:34:41;;;;;;;0.20;0.20;;;;;;;;;;6249291;28;20025;-80
2024/04/04 06:37:47;;;;;;;0.70;0.40;;;;;;;;;;6246486;28;20198;-79
2024/04/04 06:40:47;;;;;;;0.70;0.25;;;;;;;;;;6248068;28;20427;-79
2024/04/04 06:43:48;;;;;;;0.30;0.30;;;;;;;;;;6252949;28;20398;-80
2024/04/04 06:46:48;;;;;;;0.43;0.30;;;;;;;;;;6251995;28;20486;-81
2024/04/04 06:49:48;;;;;;;0.40;0.30;;;;;;;;;;6249505;28;20520;-81
2024/04/04 06:52:49;;;;;;;0.17;0.17;;;;;;;;;;6248242;28;20480;-81
2024/04/04 06:55:49;;;;;;;0.10;0.10;;;;;;;;;;6248995;28;20525;-80
2024/04/04 06:58:49;;;;;;;0.20;0.20;;;;;;;;;;6251136;28;20098;-80
2024/04/04 07:01:49;;;;;;;0.43;0.33;;;;;;;;;;6251886;28;20544;-80
2024/04/04 07:04:50;;;;;;;0.27;0.20;;;;;;;;;;6250890;28;20037;-80
2024/04/04 07:07:53;;;;;;;0.30;0.20;;;;;;;;;;6255121;28;20377;-79
2024/04/04 07:10:59;;;;;;;0.98;0.30;;;;;;;;;;6250128;28;20462;-78
2024/04/04 07:14:00;;;;;;;0.47;0.20;;;;;;;;;;6254341;28;20022;-81
2024/04/04 07:17:00;;;;;;;0.37;0.20;;;;;;;;;;6251218;28;20067;-80
2024/04/04 07:20:00;;;;;;;0.20;0.20;;;;;;;;;;6247177;28;20021;-88
2024/04/04 07:23:00;;;;;;;0.90;0.20;;;;;;;;;;6247782;28;20025;-78
2024/04/04 07:26:01;;;;;;;0.60;0.20;;;;;;;;;;6253737;28;20179;-79
2024/04/04 07:29:01;;;;;;;0.43;0.20;;;;;;;;;;6254114;28;20018;-79
2024/04/04 07:32:02;;;;;;;0.20;0.20;;;;;;;;;;6252807;28;20444;-78
2024/04/04 07:35:02;;;;;;;1.00;0.20;;;;;;;;;;6252487;28;20496;-79
2024/04/04 07:38:05;;;;;;;0.30;0.20;;;;;;;;;;6253350;28;20040;-78
2024/04/04 07:41:06;;;;;;;0.20;0.17;;;;;;;;;;6251136;28;20056;-78
2024/04/04 07:44:06;;;;;;;0.30;0.20;;;;;;;;;;6255205;28;20025;-79
2024/04/04 07:47:06;;;;;;;0.20;0.20;;;;;;;;;;6254152;28;20038;-79
2024/04/04 07:50:07;;;;;;;0.20;0.17;;;;;;;;;;6251892;28;20492;-80
2024/04/04 07:53:08;;;;;;;0.43;0.20;;;;;;;;;;6254789;28;20537;-78
2024/04/04 07:56:11;;;;;;;0.20;0.20;;;;;;;;;;6254784;28;20068;-82
2024/04/04 07:59:12;;;;;;;0.55;0.22;;;;;;;;;;6257022;28;20120;-81
2024/04/04 08:02:13;;;;;;;;;;;;;;;;;;6253150;28;20037;-79
2024/04/04 08:05:13;;;;;;;0.60;0.43;;;;;;;;;;6253444;28;19920;-80
2024/04/04 08:08:13;;;;;;;1.13;0.40;;;;;;;;;;6255474;28;20027;-79
2024/04/04 08:11:15;;;;;;;0.27;0.20;;;;;;;;;;6253590;28;20493;-78
2024/04/04 08:14:16;;;;;;;0.17;0.17;;;;;;;;;;6258468;28;20063;-79
2024/04/04 08:17:16;;;;;;;0.20;0.20;;;;;;;;;;6255125;28;20465;-83
2024/04/04 08:20:17;;;;;;;0.20;0.20;;;;;;;;;;6257963;28;20036;-83
2024/04/04 08:23:17;;;;;;;;;;;;;;;;;;6251393;28;20512;-82
2024/04/04 08:26:22;;;;;;;0.55;0.30;;;;;;;;;;6258522;28;20502;-82
2024/04/04 08:29:23;;;;;;;0.43;0.20;;;;;;;;;;6256200;28;20028;-83
2024/04/04 08:32:23;;;;;;;0.98;0.30;;;;;;;;;;6251616;28;20060;-82
2024/04/04 08:35:24;;;;;;;0.67;0.30;;;;;;;;;;6252773;28;20059;-83
2024/04/04 08:38:24;;;;;;;0.28;0.20;;;;;;;;;;6253905;28;20065;-83
2024/04/04 08:41:24;;;;;;;0.50;0.20;;;;;;;;;;6252237;28;20040;-83
2024/04/04 08:44:25;;;;;;;0.30;0.27;;;;;;;;;;6252916;28;20037;-83
2024/04/04 08:47:26;;;;;;;0.30;0.30;;;;;;;;;;6250154;28;20037;-83
2024/04/04 08:50:27;;;;;;;0.35;0.30;;;;;;;;;;6252999;28;20025;-83
2024/04/04 08:53:29;;;;;;;0.30;0.20;;;;;;;;;;6255575;28;20458;-82
2024/04/04 08:56:30;;;;;;;1.40;0.30;;;;;;;;;;6253564;28;20079;-83
2024/04/04 08:59:30;;;;;;;0.50;0.30;;;;;;;;;;6254299;28;20287;-83
2024/04/04 09:02:31;;;;;;;0.22;0.20;;;;;;;;;;6258009;28;20059;-82
2024/04/04 09:05:31;;;;;;;0.38;0.30;;;;;;;;;;6251910;28;20506;-82
2024/04/04 09:08:31;;;;;;;0.50;0.30;;;;;;;;;;6249763;28;20075;-83
2024/04/04 09:11:33;;;;;;;0.20;0.20;;;;;;;;;;6255748;28;20024;-82
2024/04/04 09:14:34;;;;;;;0.68;0.30;;;;;;;;;;6255105;28;20032;-82
2024/04/04 09:17:34;;;;;;;;;;;;;;;;;;6252354;28;20030;-81
2024/04/04 09:20:36;;;;;;;0.32;0.25;;;;;;;;;;6256605;28;19916;-82
2024/04/04 09:23:36;;;;;;;0.55;0.30;;;;;;;;;;6247415;28;20029;-81
2024/04/04 09:26:37;;;;;;;0.30;0.30;;;;;;;;;;6246019;28;20044;-82
2024/04/04 09:29:38;;;;;;;0.40;0.30;;;;;;;;;;6252486;28;20120;-81
2024/04/04 09:32:38;;;;;;;;;;;;;;;;;;6251031;28;20035;-81
2024/04/04 09:35:39;;;;;;;0.30;0.23;;;;;;;;;;6253634;28;19928;-82
2024/04/04 09:38:40;;;;;;;0.55;0.13;;;;;;;;;;6249451;28;20033;-81
2024/04/04 09:41:41;;;;;;;0.40;0.30;;;;;;;;;;6253995;28;20029;-82
2024/04/04 09:44:41;;;;;;;0.20;0.20;;;;;;;;;;6249600;28;20036;-81
2024/04/04 09:47:44;;;;;;;0.40;0.30;;;;;;;;;;6247047;28;20057;-82
2024/04/04 09:50:44;;;;;;;0.20;0.20;;;;;;;;;;6248609;28;20037;-81
2024/04/04 09:53:45;;;;;;;0.20;0.20;;;;;;;;;;6250057;28;20037;-82
2024/04/04 09:56:47;;;;;;;1.02;0.30;;;;;;;;;;6252156;28;20521;-81
2024/04/04 10:00:01;;;;;;;0.10;0.10;;;;;;;;;;6252074;28;20033;-81
2024/04/04 10:03:02;;;;;;;0.30;0.30;;;;;;;;;;6241583;28;20030;-82
2024/04/04 10:06:03;;;;;;;0.80;0.32;;;;;;;;;;6257794;28;20031;-81
2024/04/04 10:09:17;;;;;;;0.20;0.20;;;;;;;;;;6261202;28;20021;-81
2024/04/04 10:12:17;;;;;;;0.22;0.20;;;;;;;;;;6251694;28;20029;-82
2024/04/04 10:15:18;;;;;;;1.50;0.70;;;;;;;;;;6257587;28;20035;-82
2024/04/04 10:18:18;;;;;;;;;;;;;;;;;;6250246;28;20025;-82
2024/04/04 10:21:24;;;;;;;0.65;0.40;;;;;;;;;;6246791;28;19921;-81
2024/04/04 10:24:32;;;;;;;0.22;0.20;;;;;;;;;;6250378;28;20029;-83
2024/04/04 10:27:32;;;;;;;0.63;0.40;;;;;;;;;;6250999;28;20044;-83
2024/04/04 10:30:35;;;;;;;0.20;0.20;;;;;;;;;;6248585;28;22017;-83
2024/04/04 10:33:36;;;;;;;0.63;0.22;;;;;;;;;;6240481;28;20075;-83
2024/04/04 10:36:37;;;;;;;0.30;0.10;;;;;;;;;;6251255;28;20049;-82
2024/04/04 10:39:37;;;;;;;;;;;;;;;;;;6251498;28;20033;-82
2024/04/04 10:42:37;;;;;;;1.55;0.30;;;;;;;;;;6249855;28;19913;-82
2024/04/04 10:45:37;;;;;;;;;;;;;;;;;;6251775;28;20056;-81
2024/04/04 10:48:38;;;;;;;0.20;0.20;;;;;;;;;;6251598;28;19909;-83
2024/04/04 10:51:38;;;;;;;;;;;;;;;;;;6251797;28;20025;-83
2024/04/04 10:54:38;;;;;;;0.20;0.20;;;;;;;;;;6254137;28;20408;-83
2024/04/04 10:57:39;;;;;;;;;;;;;;;;;;6258243;28;20025;-83
2024/04/04 11:00:39;;;;;;;0.83;0.67;;;;;;;;;;6253499;28;20280;-83
2024/04/04 11:03:40;;;;;;;;;;;;;;;;;;6256627;28;20040;-83
2024/04/04 11:06:40;;;;;;;0.40;0.37;;;;;;;;;;6255118;28;20412;-83
2024/04/04 11:09:40;;;;;;;;;;;;;;;;;;6251338;28;20457;-83
2024/04/04 11:12:43;;;;;;;0.47;0.30;;;;;;;;;;6249003;28;19916;-83
2024/04/04 11:15:43;;;;;;;0.20;0.20;;;;;;;;;;6251380;28;20034;-84
2024/04/04 11:18:43;;;;;;;;;;;;;;;;;;6252169;28;20032;-83
2024/04/04 11:21:44;;;;;;;0.10;0.10;;;;;;;;;;6250466;28;20362;-83
2024/04/04 11:24:45;;;;;;;;;;;;;;;;;;6256550;28;20068;-83
2024/04/04 11:27:45;;;;;;;0.40;0.10;;;;;;;;;;6249005;28;20273;-84
2024/04/04 11:30:45;;;;;;;;;;;;;;;;;;6251707;28;20385;-83
2024/04/04 11:33:46;;;;;;;0.30;0.10;;;;;;;;;;6240717;28;19920;-84
2024/04/04 11:36:46;;;;;;;;;;;;;;;;;;6251947;28;20053;-84
2024/04/04 11:39:46;;;;;;;0.10;0.10;;;;;;;;;;6248241;28;19957;-84
2024/04/04 11:42:46;;;;;;;;;;;;;;;;;;6250341;28;20079;-84
2024/04/04 11:45:46;;;;;;;0.30;0.10;;;;;;;;;;6251403;28;19917;-84
2024/04/04 11:48:47;;;;;;;0.40;0.20;;;;;;;;;;5899362;28;10000402;-79
2024/04/04 11:51:47;;;;;;;;;;;;;;;;;;6249267;28;20127;-78
2024/04/04 11:54:48;;;;;;;0.33;0.30;;;;;;;;;;6247505;28;20429;-79
2024/04/04 11:57:49;;;;;;;0.75;0.20;;;;;;;;;;6256164;28;20493;-84
2024/04/04 12:00:49;;;;;;;;;;;;;;;;;;6252035;28;20138;-81
2024/04/04 12:03:49;;;;;;;0.30;0.15;;;;;;;;;;6254067;28;19978;-81
2024/04/04 12:06:50;;;;;;;;;;;;;;;;;;6253723;28;20035;-78
2024/04/04 12:09:50;;;;;;;0.10;0.10;;;;;;;;;;6256032;28;20358;-78
2024/04/04 12:12:50;;;;;;;;;;;;;;;;;;6237823;28;20087;-80
2024/04/04 12:15:50;;;;;;;0.20;0.20;;;;;;;;;;6250762;28;20369;-77
2024/04/04 12:22:09;;;;;;;0.10;0.10;;;;;;;;;;6253408;28;19913;-78
2024/04/04 12:25:15;;;;;;;;;;;;;;;;;;6250485;28;20068;-73
2024/04/04 12:28:17;;;;;;;0.88;0.30;;;;;;;;;;6258677;28;19916;-73
2024/04/04 12:31:17;;;;;;;0.10;0.10;;;;;;;;;;6255311;28;20037;-73
2024/04/04 12:34:17;;;;;;;;;;;;;;;;;;6244059;28;20055;-73
2024/04/04 12:37:17;;;;;;;0.13;0.10;;;;;;;;;;6245226;28;19975;-77
2024/04/04 12:40:18;;;;;;;;;;;;;;;;;;6250957;28;20543;-81
2024/04/04 12:43:18;;;;;;;0.47;0.20;;;;;;;;;;6249299;28;19935;-79
2024/04/04 12:46:18;;;;;;;;;;;;;;;;;;6247979;28;20702;-79
2024/04/04 12:49:18;;;;;;;0.50;0.10;;;;;;;;;;6246368;28;19961;-79
2024/04/04 12:52:19;;;;;;;;;;;;;;;;;;6246449;28;20040;-79
2024/04/04 12:55:22;;;;;;;0.17;0.17;;;;;;;;;;6249675;28;20285;-77
2024/04/04 12:58:22;;;;;;;0.38;0.25;;;;;;;;;;6250164;28;20025;-77
2024/04/04 13:01:22;;;;;;;;;;;;;;;;;;6249556;28;20122;-83
2024/04/04 13:04:23;;;;;;;0.20;0.17;;;;;;;;;;6252454;28;19920;-83
2024/04/04 13:07:23;;;;;;;;;;;;;;;;;;6256192;28;20028;-83
2024/04/04 13:10:23;;;;;;;0.30;0.10;;;;;;;;;;6254566;28;20233;-84
2024/04/04 13:13:23;;;;;;;0.25;0.10;;;;;;;;;;6251198;28;20462;-83
2024/04/04 13:16:24;;;;;;;0.10;0.10;;;;;;;;;;6256628;28;20075;-83
2024/04/04 13:19:24;;;;;;;;;;;;;;;;;;6250413;28;20304;-83
2024/04/04 13:22:24;;;;;;;0.40;0.20;;;;;;;;;;6256108;28;19963;-83
2024/04/04 13:25:25;;;;;;;0.20;0.20;;;;;;;;;;6257396;28;20032;-83
2024/04/04 13:28:25;;;;;;;0.17;0.13;;;;;;;;;;6251890;28;20025;-83
2024/04/04 13:31:25;;;;;;;0.20;0.20;;;;;;;;;;6249193;28;20033;-83
2024/04/04 13:34:26;;;;;;;0.28;0.20;;;;;;;;;;6248868;28;20029;-84
2024/04/04 13:37:26;;;;;;;0.20;0.20;;;;;;;;;;6253669;28;20394;-82
2024/04/04 13:40:26;;;;;;;0.30;0.17;;;;;;;;;;6249698;28;20508;-83
2024/04/04 13:43:27;;;;;;;0.20;0.10;;;;;;;;;;6256857;28;20724;-83
2024/04/04 13:46:27;;;;;;;0.82;0.10;;;;;;;;;;6251756;28;20090;-83
2024/04/04 13:49:27;;;;;;;0.20;0.20;;;;;;;;;;6249300;28;20553;-83
2024/04/04 13:52:28;;;;;;;0.20;0.17;;;;;;;;;;6247774;28;20732;-83
2024/04/04 13:55:29;;;;;;;0.10;0.10;;;;;;;;;;6249009;28;20108;-82
2024/04/04 13:58:29;;;;;;;0.20;0.20;;;;;;;;;;6251052;28;20026;-83
2024/04/04 14:01:34;;;;;;;0.13;0.10;;;;;;;;;;6255225;28;20297;-83
2024/04/04 14:04:35;;;;;;;0.30;0.20;;;;;;;;;;6254592;28;20290;-82
2024/04/04 14:07:36;;;;;;;0.40;0.20;;;;;;;;;;6272222;28;20029;-79
2024/04/04 14:10:36;;;;;;;0.37;0.20;;;;;;;;;;6250133;28;20025;-80
2024/04/04 14:13:36;;;;;;;0.13;0.10;;;;;;;;;;6246956;28;20272;-79
2024/04/04 14:16:37;;;;;;;0.50;0.20;;;;;;;;;;6248190;28;20029;-81
2024/04/04 14:19:37;;;;;;;0.30;0.10;;;;;;;;;;6247352;28;20028;-79
2024/04/04 14:22:37;;;;;;;0.40;0.20;;;;;;;;;;6254209;28;20322;-79
2024/04/04 14:25:38;;;;;;;0.20;0.20;;;;;;;;;;6249043;28;20463;-79
2024/04/04 14:28:38;;;;;;;0.45;0.17;;;;;;;;;;6247724;28;20025;-79
2024/04/04 14:31:41;;;;;;;0.73;0.20;;;;;;;;;;6252217;28;20512;-79
2024/04/04 14:34:41;;;;;;;0.30;0.17;;;;;;;;;;6249851;28;20363;-79
2024/04/04 14:37:41;;;;;;;0.50;0.20;;;;;;;;;;6247086;28;20045;-79
2024/04/04 14:40:42;;;;;;;0.10;0.10;;;;;;;;;;6251523;28;20057;-80
2024/04/04 14:43:44;;;;;;;0.20;0.20;;;;;;;;;;6246698;28;20330;-79
2024/04/04 14:46:44;;;;;;;0.50;0.10;;;;;;;;;;6252909;28;20705;-79
2024/04/04 14:49:49;;;;;;;0.47;0.20;;;;;;;;;;6250096;28;20091;-79
2024/04/04 14:52:50;;;;;;;0.10;0.10;;;;;;;;;;6244476;28;20080;-79
2024/04/04 14:55:51;;;;;;;1.23;0.22;;;;;;;;;;6251262;28;20059;-79
2024/04/04 14:58:51;;;;;;;0.20;0.13;;;;;;;;;;6258449;28;20021;-80
2024/04/04 15:01:53;;;;;;;0.22;0.10;;;;;;;;;;6266555;28;20331;-79
2024/04/04 15:04:53;;;;;;;0.15;0.10;;;;;;;;;;6263116;28;20025;-80
2024/04/04 15:07:53;;;;;;;0.17;0.17;;;;;;;;;;6254041;28;20030;-79
2024/04/04 15:10:54;;;;;;;0.30;0.20;;;;;;;;;;6260999;28;20322;-79
2024/04/04 15:13:54;;;;;;;0.07;0.07;;;;;;;;;;6258091;28;20268;-79
2024/04/04 15:16:54;;;;;;;0.10;0.10;;;;;;;;;;6263836;28;20303;-79
2024/04/04 15:19:54;;;;;;;0.43;0.10;;;;;;;;;;6262850;28;20248;-81
2024/04/04 15:22:55;;;;;;;0.30;0.15;;;;;;;;;;6263707;28;20374;-80
2024/04/04 15:25:56;;;;;;;0.30;0.20;;;;;;;;;;6259620;28;20509;-79
2024/04/04 15:28:56;;;;;;;0.22;0.20;;;;;;;;;;6254824;28;20025;-79
2024/04/04 15:31:56;;;;;;;0.15;0.15;;;;;;;;;;6266179;28;20033;-79
2024/04/04 15:34:57;;;;;;;0.20;0.20;;;;;;;;;;6267581;28;20021;-79
2024/04/04 15:37:57;;;;;;;0.20;0.20;;;;;;;;;;6260783;28;20308;-79
2024/04/04 15:40:58;;;;;;;0.10;0.10;;;;;;;;;;6258933;28;20127;-79
2024/04/04 15:44:01;;;;;;;0.20;0.20;;;;;;;;;;6259241;28;20350;-79
2024/04/04 15:47:01;;;;;;;0.20;0.20;;;;;;;;;;6259221;28;20107;-79
2024/04/04 15:50:02;;;;;;;0.13;0.10;;;;;;;;;;6257588;28;20056;-79
2024/04/04 15:53:04;;;;;;;0.40;0.17;;;;;;;;;;6258211;28;20061;-79
2024/04/04 15:56:05;;;;;;;0.10;0.10;;;;;;;;;;6256270;28;20033;-79
2024/04/04 15:59:05;;;;;;;0.10;0.10;;;;;;;;;;6260251;28;20029;-79
2024/04/04 16:02:05;;;;;;;0.20;0.20;;;;;;;;;;6247288;28;20024;-79
2024/04/04 16:05:06;;;;;;;0.10;0.10;;;;;;;;;;6255299;28;20287;-79
2024/04/04 16:08:06;;;;;;;0.17;0.10;;;;;;;;;;6250220;28;20083;-79
2024/04/04 16:11:06;;;;;;;0.30;0.30;;;;;;;;;;6256153;28;20025;-79
2024/04/04 16:14:07;;;;;;;0.20;0.20;;;;;;;;;;6249420;28;20036;-78
2024/04/04 16:17:07;;;;;;;0.30;0.30;;;;;;;;;;6249401;28;20363;-81
2024/04/04 16:20:08;;;;;;;3.72;3.15;;;;;;;;;;6248847;28;20406;-79
2024/04/04 16:23:08;;;;;;;3.33;2.83;;;;;;;;;;6243290;28;20102;-79
2024/04/04 16:26:09;;;;;;;3.67;2.97;;;;;;;;;;6260372;28;20025;-79
2024/04/04 16:29:09;;;;;;;2.50;2.30;;;;;;;;;;6250026;28;20800;-79
2024/04/04 16:32:09;;;;;;;1.97;1.77;;;;;;;;;;6246209;28;20828;-79
2024/04/04 16:35:12;;;;;;;1.90;1.73;;;;;;;;;;6258268;28;20784;-79
2024/04/04 16:38:13;;;;;;;3.45;3.15;;;;;;;;;;6237620;28;20744;-79
2024/04/04 16:41:13;;;;;;;2.95;2.30;;;;;;;;;;6228897;28;20041;-79
2024/04/04 16:44:13;;;;;;;1.83;1.40;;;;;;;;;;6248553;28;20147;-79
2024/04/04 16:47:14;;;;;;;1.00;1.00;;;;;;;;;;6238269;28;20446;-80
2024/04/04 16:50:14;;;;;;;0.60;0.60;;;;;;;;;;6246058;28;20041;-79
2024/04/04 16:53:15;;;;;;;0.52;0.52;;;;;;;;;;6236598;28;20063;-82
2024/04/04 16:56:16;;;;;;;0.55;0.47;;;;;;;;;;6268067;28;20572;-79
2024/04/04 16:59:19;;;;;;;0.47;0.30;;;;;;;;;;6239438;28;20079;-79
2024/04/04 17:02:19;;;;;;;0.30;0.30;;;;;;;;;;6241567;28;20035;-78
2024/04/04 17:05:20;;;;;;;0.30;0.30;;;;;;;;;;6245881;28;20033;-78
2024/04/04 17:08:20;;;;;;;;;;;;;;;;;;6232743;28;20280;-79
2024/04/04 17:11:26;;;;;;;0.20;0.20;;;;;;;;;;6246472;28;19908;-80
2024/04/04 17:14:27;;;;;;;0.65;0.30;;;;;;;;;;6247430;28;20021;-81
2024/04/04 17:17:27;;;;;;;;;;;;;;;;;;6247308;28;20037;-80
2024/04/04 17:20:27;;;;;;;0.20;0.20;;;;;;;;;;6246382;28;20362;-81
2024/04/04 17:23:27;;;;;;;;;;;;;;;;;;6241674;28;20029;-80
2024/04/04 17:26:28;;;;;;;0.30;0.20;;;;;;;;;;6254043;28;19996;-87
2024/04/04 17:29:29;;;;;;;;;;;;;;;;;;6248353;28;20459;-78
2024/04/04 17:32:29;;;;;;;0.40;0.30;;;;;;;;;;6247933;28;19917;-78
2024/04/04 17:35:30;;;;;;;;;;;;;;;;;;6250550;28;20057;-77
2024/04/04 17:38:30;;;;;;;0.30;0.30;;;;;;;;;;6246209;28;19923;-81
2024/04/04 17:41:31;;;;;;;;;;;;;;;;;;6245896;28;20038;-82
2024/04/04 17:44:31;;;;;;;2.05;1.25;;;;;;;;;;6249617;28;20401;-81
2024/04/04 17:47:31;;;;;;;;;;;;;;;;;;6246451;28;20037;-81
2024/04/04 17:50:31;;;;;;;0.50;0.50;;;;;;;;;;6253435;28;20251;-81
2024/04/04 17:53:32;;;;;;;;;;;;;;;;;;6245445;28;20509;-82
2024/04/04 17:56:32;;;;;;;0.40;0.40;;;;;;;;;;6240714;28;19939;-81
2024/04/04 17:59:32;;;;;;;;;;;;;;;;;;6245464;28;20486;-82
2024/04/04 18:02:33;;;;;;;0.30;0.30;;;;;;;;;;6259643;28;19936;-82
2024/04/04 18:05:33;;;;;;;;;;;;;;;;;;6262790;28;20597;-81
2024/04/04 18:08:33;;;;;;;0.20;0.20;;;;;;;;;;6251522;28;19909;-81
2024/04/04 18:11:33;;;;;;;;;;;;;;;;;;6247368;28;20437;-81
2024/04/04 18:14:33;;;;;;;0.30;0.30;;;;;;;;;;6238553;28;19914;-82
2024/04/04 18:17:33;;;;;;;;;;;;;;;;;;6241983;28;20569;-82
2024/04/04 18:20:34;;;;;;;0.47;0.33;;;;;;;;;;6240589;28;19940;-82